map of KZI home
KZI - Airport
Location
City:  Kozani, DytikÝ MakedonÝa (Western Macedonia), Greece
Name:Filippos
ICAO:LGKZ
IATA:KZI

Details
Type:Airport (Aerodrome, Airfield)
Latitude:40░17'10"N (40.286110)
Longitude:21░50'27"E (21.840834)
Datum:WGS 1984
Elevation:2059 ft (628 m)
Variation:4.54░E (WMM2015 magnetic declination)
0.10░ annual change
Runways:1
Longest:5978 × 98 ft (1822 × 30 m), paved

Time
Time Zone:UTC+2 (DST+3)
Local Time:

Weather
METAR:LGKZ 161150Z 31004KT 9999 FEW005 SCT020 BKN070 09/M00 Q1011

Related Locations
Nearby:
Farthest:CHT: 11471 mi / 18460 km
Waitangi [Tuuta], CIT, NZ

Find:

   beyond  
but within

Other Information
Maps:
NOTAMs:
Links:
Sources:

  
  • flag of Greece
  

Sectional Chart

Flight Planning
at skyvector.com

Satellite Image

Google Maps Satellite view

 

Copyright © 2004-2018 Karl L. Swartz. All rights reserved.
The Great Circle Mapper name and logo are trademarks of the Great Circle Mapper.
All other trademarks mentioned herein belong to their respective owners.
Please see credits for attibutions and further copyright information.

  Follow gcmap on Facebook Follow gcmap on Twitter Follow gcmap on Google+ GCmap on LinkedIn

hCard Microformat

Geo Microformat